Coderre, Canada
Current Conditions -  °F | °C
As of 5:00 PM on Friday 24 Oct 2014 (Local Time) from CYMJ Reporting Station
Few Clouds Few Clouds  
Wind Chill: 54°   Ceiling: Unl
Heat Index: 54°   Visibility: 15mi
Dew Point: 34°   Wind: 16mph
Humidity: 47%   Direction: 280°W
Pressure: 29.92"   Gusts: NA
Location:  50.13°N, 106.38°W
Report Text: CYMJ 242300Z 28014KT 15SM FEW250 12/01 A2992 RMK CI1 SLP142
Loading
Personal Weather Stations






























Interactive Weather Map
Tropical Storm Tracking
New forecast layout! Learn more

10-Day Weather Forecast

Advertisements
Track Severe Weather on mobile